Time;durP1;ratioP1;P1;durP2;ratioP2;P2;SDS_P1;SDS_P2;PMS_P1;PMS_P2;Temp;Humidity;BMP_temperature;BMP_pressure;BME280_temperature;BME280_humidity;BME280_pressure;Samples;Min_cycle;Max_cycle;Signal;HPM_P1;HPM_P2
2022/11/06 00:00:20;;;;;;;6.35;2.60;;;;;;;;;;5041156;28;20016;-78
2022/11/06 00:02:45;;;;;;;6.20;2.50;;;;;;;;;;5041074;28;20037;-78
2022/11/06 00:07:55;;;;;;;6.63;2.70;;;;;;;;;;5060692;28;20043;-78
2022/11/06 00:10:20;;;;;;;8.57;2.40;;;;;;;;;;5057524;28;20475;-78
2022/11/06 00:12:47;;;;;;;5.85;2.40;;;;;;;;;;5057617;28;20036;-78
2022/11/06 00:15:12;;;;;;;7.90;2.70;;;;;;;;;;5075333;28;20021;-78
2022/11/06 00:17:38;;;;;;;7.43;2.58;;;;;;;;;;5040677;28;20035;-78
2022/11/06 00:20:08;;;;;;;9.20;2.40;;;;;;;;;;5024158;28;20105;-78
2022/11/06 00:22:34;;;;;;;6.72;2.50;;;;;;;;;;5057985;28;20024;-78
2022/11/06 00:25:00;;;;;;;7.25;2.85;;;;;;;;;;5057608;28;20077;-78
2022/11/06 00:27:26;;;;;;;5.80;2.25;;;;;;;;;;5057249;28;20394;-78
2022/11/06 00:29:51;;;;;;;4.38;2.25;;;;;;;;;;5057251;28;20029;-78
2022/11/06 00:32:16;;;;;;;4.20;2.42;;;;;;;;;;5039190;28;20033;-78
2022/11/06 00:34:41;;;;;;;5.45;2.45;;;;;;;;;;5057683;28;20431;-78
2022/11/06 00:37:07;;;;;;;4.93;2.85;;;;;;;;;;5040739;28;20032;-78
2022/11/06 00:39:32;;;;;;;4.50;2.30;;;;;;;;;;5075209;28;20028;-78
2022/11/06 00:41:58;;;;;;;4.65;2.38;;;;;;;;;;5075129;28;20119;-78
2022/11/06 00:44:23;;;;;;;3.70;2.13;;;;;;;;;;5040293;28;20363;-78
2022/11/06 00:46:48;;;;;;;4.70;2.40;;;;;;;;;;5056944;28;20028;-78
2022/11/06 00:49:14;;;;;;;5.63;2.50;;;;;;;;;;5056818;28;20036;-78
2022/11/06 00:51:39;;;;;;;5.53;2.42;;;;;;;;;;5056934;28;20113;-78
2022/11/06 00:54:07;;;;;;;5.03;2.22;;;;;;;;;;5040170;28;20104;-78
2022/11/06 00:56:32;;;;;;;4.05;2.00;;;;;;;;;;5056874;28;20028;-78
2022/11/06 00:59:03;;;;;;;4.07;2.15;;;;;;;;;;5056651;28;20047;-78
2022/11/06 01:01:32;;;;;;;6.05;2.70;;;;;;;;;;5056783;28;20021;-78
2022/11/06 01:04:16;;;;;;;5.25;1.92;;;;;;;;;;5040180;28;20033;-78
2022/11/06 01:06:43;;;;;;;4.80;2.43;;;;;;;;;;5040154;28;20028;-78
2022/11/06 01:09:12;;;;;;;4.68;2.33;;;;;;;;;;5056444;28;20107;-78
2022/11/06 01:11:40;;;;;;;3.30;2.15;;;;;;;;;;5056909;28;20029;-78
2022/11/06 01:14:07;;;;;;;7.63;2.30;;;;;;;;;;5056721;28;20027;-78
2022/11/06 01:16:33;;;;;;;5.03;2.40;;;;;;;;;;5040024;28;20032;-78
2022/11/06 01:18:59;;;;;;;4.68;2.40;;;;;;;;;;5040072;28;20078;-78
2022/11/06 01:21:29;;;;;;;4.22;2.22;;;;;;;;;;5074298;28;20412;-78
2022/11/06 01:24:00;;;;;;;6.93;2.70;;;;;;;;;;5074711;28;20074;-78
2022/11/06 01:26:26;;;;;;;4.85;2.20;;;;;;;;;;5056697;28;20020;-78
2022/11/06 01:28:52;;;;;;;8.77;2.65;;;;;;;;;;5056333;28;20032;-78
2022/11/06 01:31:19;;;;;;;7.00;2.55;;;;;;;;;;5039479;28;20047;-78
2022/11/06 01:33:46;;;;;;;5.03;2.20;;;;;;;;;;5039524;28;20078;-78
2022/11/06 01:36:14;;;;;;;11.48;2.60;;;;;;;;;;5056769;28;20098;-78
2022/11/06 01:38:40;;;;;;;3.97;2.25;;;;;;;;;;5056445;28;20029;-78
2022/11/06 01:41:06;;;;;;;7.22;2.38;;;;;;;;;;5056224;28;20044;-78
2022/11/06 01:43:48;;;;;;;3.55;2.30;;;;;;;;;;5055748;28;20036;-78
2022/11/06 01:46:14;;;;;;;6.20;2.20;;;;;;;;;;5055874;28;20417;-78
2022/11/06 01:48:43;;;;;;;6.32;2.40;;;;;;;;;;5056166;28;20052;-78
2022/11/06 01:51:09;;;;;;;5.13;2.22;;;;;;;;;;5039051;28;20036;-78
2022/11/06 01:53:34;;;;;;;6.40;2.50;;;;;;;;;;5073534;28;20033;-78
2022/11/06 01:56:02;;;;;;;4.75;2.10;;;;;;;;;;5056186;28;20028;-78
2022/11/06 01:58:30;;;;;;;5.82;2.13;;;;;;;;;;5055607;28;20120;-78
2022/11/06 02:00:55;;;;;;;4.00;2.10;;;;;;;;;;5055597;28;20044;-78
2022/11/06 02:03:20;;;;;;;4.38;2.00;;;;;;;;;;5073669;28;20490;-78
2022/11/06 02:05:46;;;;;;;5.50;2.15;;;;;;;;;;5055973;28;20119;-78
2022/11/06 02:08:15;;;;;;;3.80;1.98;;;;;;;;;;5055920;28;20107;-78
2022/11/06 02:10:41;;;;;;;3.67;1.75;;;;;;;;;;5055785;28;20219;-78
2022/11/06 02:13:12;;;;;;;3.13;2.25;;;;;;;;;;5073664;28;20028;-78
2022/11/06 02:15:43;;;;;;;4.00;2.30;;;;;;;;;;5073551;28;20028;-78
2022/11/06 02:18:15;;;;;;;4.50;1.83;;;;;;;;;;5073529;28;20085;-78
2022/11/06 02:20:53;;;;;;;2.42;1.77;;;;;;;;;;5073415;28;20035;-77
2022/11/06 02:23:29;;;;;;;4.63;2.00;;;;;;;;;;5055147;28;20028;-78
2022/11/06 02:26:21;;;;;;;3.15;1.90;;;;;;;;;;5073156;28;20025;-78
2022/11/06 02:28:56;;;;;;;4.60;1.90;;;;;;;;;;5046190;28;20055;-78
2022/11/06 02:31:25;;;;;;;4.13;2.05;;;;;;;;;;5055043;28;20442;-78
2022/11/06 02:33:55;;;;;;;4.40;2.00;;;;;;;;;;5055017;28;20078;-78
2022/11/06 02:36:26;;;;;;;4.18;1.90;;;;;;;;;;5038194;28;20025;-78
2022/11/06 02:38:55;;;;;;;6.18;2.03;;;;;;;;;;5055134;28;20029;-78
2022/11/06 02:41:24;;;;;;;6.60;2.25;;;;;;;;;;5054779;28;20107;-78
2022/11/06 02:43:54;;;;;;;4.60;2.10;;;;;;;;;;5054915;28;20058;-78
2022/11/06 02:46:23;;;;;;;3.70;2.10;;;;;;;;;;5038067;28;20165;-78
2022/11/06 02:48:54;;;;;;;4.93;2.50;;;;;;;;;;5054968;28;20489;-77
2022/11/06 02:51:22;;;;;;;3.25;2.17;;;;;;;;;;5054874;28;20075;-78
2022/11/06 02:53:48;;;;;;;3.05;1.95;;;;;;;;;;5054401;28;20121;-78
2022/11/06 02:56:16;;;;;;;6.50;2.30;;;;;;;;;;5054371;28;20053;-78
2022/11/06 02:58:54;;;;;;;4.90;1.92;;;;;;;;;;5037799;28;20609;-78
2022/11/06 03:01:29;;;;;;;4.90;2.25;;;;;;;;;;5054636;28;20115;-78
2022/11/06 03:04:02;;;;;;;4.72;1.90;;;;;;;;;;5054729;28;20040;-78
2022/11/06 03:06:30;;;;;;;3.10;1.70;;;;;;;;;;5054961;28;20025;-78
2022/11/06 03:09:08;;;;;;;1.90;1.50;;;;;;;;;;5072487;28;20417;-78
2022/11/06 03:11:37;;;;;;;3.63;1.90;;;;;;;;;;5054497;28;20027;-78
2022/11/06 03:14:18;;;;;;;4.57;1.95;;;;;;;;;;5054925;28;20032;-78
2022/11/06 03:17:04;;;;;;;4.40;1.95;;;;;;;;;;5054350;28;20120;-78
2022/11/06 03:20:05;;;;;;;5.47;2.25;;;;;;;;;;5054468;28;20036;-78
2022/11/06 03:22:45;;;;;;;2.75;1.67;;;;;;;;;;5061566;28;20032;-79
2022/11/06 03:25:20;;;;;;;4.10;2.00;;;;;;;;;;5037819;28;20223;-79
2022/11/06 03:27:51;;;;;;;4.70;1.90;;;;;;;;;;5054364;28;20020;-79
2022/11/06 03:30:17;;;;;;;3.92;1.90;;;;;;;;;;5037570;28;20035;-78
2022/11/06 03:32:54;;;;;;;5.32;2.00;;;;;;;;;;5072433;28;20111;-78
2022/11/06 03:35:30;;;;;;;3.72;1.90;;;;;;;;;;5054303;28;20455;-78
2022/11/06 03:38:16;;;;;;;6.88;1.90;;;;;;;;;;5037461;28;20039;-78
2022/11/06 03:40:44;;;;;;;6.82;1.85;;;;;;;;;;5054248;28;20016;-78
2022/11/06 03:43:13;;;;;;;3.10;1.83;;;;;;;;;;5054623;28;20031;-78
2022/11/06 03:45:40;;;;;;;2.42;1.60;;;;;;;;;;5054270;28;20475;-78
2022/11/06 03:48:13;;;;;;;3.50;1.85;;;;;;;;;;5054024;28;20055;-78
2022/11/06 03:51:01;;;;;;;5.47;2.00;;;;;;;;;;5072257;28;20055;-78
2022/11/06 03:53:33;;;;;;;6.85;2.20;;;;;;;;;;5072003;28;20133;-78
2022/11/06 03:56:02;;;;;;;3.20;1.88;;;;;;;;;;5054425;28;20025;-78
2022/11/06 03:58:31;;;;;;;5.60;1.70;;;;;;;;;;5054291;28;20044;-78
2022/11/06 04:00:58;;;;;;;3.80;1.92;;;;;;;;;;5054027;28;20024;-78
2022/11/06 04:03:44;;;;;;;3.55;1.63;;;;;;;;;;5054023;28;20111;-78
2022/11/06 04:06:10;;;;;;;5.05;1.67;;;;;;;;;;5055861;28;20029;-78
2022/11/06 04:14:08;;;;;;;3.03;1.77;;;;;;;;;;5060634;28;20098;-78
2022/11/06 04:16:39;;;;;;;3.50;1.60;;;;;;;;;;5058008;28;20424;-78
2022/11/06 04:19:17;;;;;;;4.10;1.77;;;;;;;;;;5057729;28;20025;-78
2022/11/06 04:22:10;;;;;;;5.18;1.50;;;;;;;;;;5057487;28;20029;-80
2022/11/06 04:27:57;;;;;;;2.63;1.58;;;;;;;;;;5075345;28;20119;-78
2022/11/06 04:30:23;;;;;;;3.78;1.90;;;;;;;;;;5057560;28;20112;-78
2022/11/06 04:33:00;;;;;;;3.88;1.65;;;;;;;;;;5075174;28;20055;-78
2022/11/06 04:35:54;;;;;;;2.78;1.35;;;;;;;;;;5073897;28;20024;-78
2022/11/06 04:38:29;;;;;;;4.00;1.98;;;;;;;;;;5073768;28;20451;-77
2022/11/06 04:41:07;;;;;;;4.20;1.67;;;;;;;;;;5057434;28;20375;-78
2022/11/06 04:43:35;;;;;;;2.63;1.48;;;;;;;;;;5075456;28;20495;-78
2022/11/06 04:46:02;;;;;;;4.57;1.70;;;;;;;;;;5074961;28;20104;-78
2022/11/06 04:48:28;;;;;;;5.53;1.60;;;;;;;;;;5057270;28;20029;-78
2022/11/06 04:50:58;;;;;;;7.82;1.65;;;;;;;;;;5057169;28;20028;-78
2022/11/06 04:53:24;;;;;;;4.13;1.55;;;;;;;;;;5040284;28;20078;-78
2022/11/06 04:55:54;;;;;;;3.47;1.67;;;;;;;;;;5057099;28;20101;-78
2022/11/06 04:58:20;;;;;;;6.40;1.60;;;;;;;;;;5056738;28;20045;-78
2022/11/06 05:00:47;;;;;;;4.30;1.50;;;;;;;;;;5057072;28;20040;-78
2022/11/06 05:03:13;;;;;;;3.28;1.70;;;;;;;;;;5057847;28;20021;-78
2022/11/06 05:05:39;;;;;;;6.75;1.50;;;;;;;;;;5075456;28;20074;-78
2022/11/06 05:08:05;;;;;;;3.55;1.63;;;;;;;;;;5057487;28;20497;-78
2022/11/06 05:10:30;;;;;;;3.22;1.60;;;;;;;;;;5057383;28;20035;-78
2022/11/06 05:12:55;;;;;;;4.00;1.80;;;;;;;;;;5058000;28;20059;-78
2022/11/06 05:15:21;;;;;;;3.67;1.58;;;;;;;;;;5057630;28;20033;-78
2022/11/06 05:17:46;;;;;;;4.93;1.60;;;;;;;;;;5039792;28;20425;-79
2022/11/06 05:20:12;;;;;;;2.92;1.50;;;;;;;;;;5057238;28;20031;-78
2022/11/06 05:22:59;;;;;;;4.57;1.75;;;;;;;;;;5075384;28;20020;-78
2022/11/06 05:25:33;;;;;;;4.10;1.67;;;;;;;;;;5059757;28;20067;-78
2022/11/06 05:27:59;;;;;;;4.97;1.98;;;;;;;;;;5074937;28;20020;-78
2022/11/06 05:30:25;;;;;;;6.30;1.80;;;;;;;;;;5075067;28;20379;-78
2022/11/06 05:32:51;;;;;;;4.20;1.95;;;;;;;;;;5057360;28;20036;-77
2022/11/06 05:35:17;;;;;;;4.13;1.42;;;;;;;;;;5056975;28;20078;-77
2022/11/06 05:37:43;;;;;;;3.38;1.67;;;;;;;;;;5040269;28;20531;-78
2022/11/06 05:40:08;;;;;;;3.83;1.50;;;;;;;;;;5057162;28;20028;-78
2022/11/06 05:42:38;;;;;;;2.83;1.50;;;;;;;;;;5056862;28;20394;-78
2022/11/06 05:45:04;;;;;;;4.43;1.52;;;;;;;;;;5074748;28;20056;-78
2022/11/06 05:47:30;;;;;;;3.30;1.50;;;;;;;;;;5074527;28;20039;-78
2022/11/06 05:49:55;;;;;;;5.97;1.63;;;;;;;;;;5074454;28;20029;-78
2022/11/06 05:52:20;;;;;;;3.75;1.50;;;;;;;;;;5075068;28;20594;-78
2022/11/06 05:54:46;;;;;;;4.78;1.77;;;;;;;;;;5075036;28;20471;-78
2022/11/06 05:57:11;;;;;;;3.58;1.60;;;;;;;;;;5074434;28;20044;-78
2022/11/06 05:59:36;;;;;;;2.80;1.38;;;;;;;;;;5039671;28;20055;-77
2022/11/06 06:02:02;;;;;;;3.83;1.70;;;;;;;;;;5056415;28;20119;-78
2022/11/06 06:04:27;;;;;;;4.78;1.50;;;;;;;;;;5057048;28;20131;-78
2022/11/06 06:06:53;;;;;;;3.20;1.60;;;;;;;;;;5056698;28;20048;-78
2022/11/06 06:09:18;;;;;;;5.63;1.63;;;;;;;;;;5074196;28;20028;-78
2022/11/06 06:11:43;;;;;;;3.20;1.40;;;;;;;;;;5074534;28;20081;-78
2022/11/06 06:14:09;;;;;;;3.20;1.40;;;;;;;;;;5074608;28;20028;-79
2022/11/06 06:16:34;;;;;;;4.05;1.48;;;;;;;;;;5074606;28;20040;-78
2022/11/06 06:18:59;;;;;;;5.78;1.70;;;;;;;;;;5074042;28;20037;-78
2022/11/06 06:21:25;;;;;;;6.75;1.45;;;;;;;;;;5073764;28;20022;-78
2022/11/06 06:23:50;;;;;;;4.65;1.60;;;;;;;;;;5041163;28;20029;-78
2022/11/06 06:26:16;;;;;;;3.30;1.42;;;;;;;;;;5075601;28;20025;-78
2022/11/06 06:28:41;;;;;;;2.97;1.80;;;;;;;;;;5057773;28;20040;-77
2022/11/06 06:31:07;;;;;;;4.20;1.55;;;;;;;;;;5075166;28;20024;-77
2022/11/06 06:33:33;;;;;;;2.22;1.30;;;;;;;;;;5056749;28;20031;-78
2022/11/06 06:36:02;;;;;;;5.38;1.67;;;;;;;;;;5075072;28;20094;-78
2022/11/06 06:38:27;;;;;;;5.53;1.80;;;;;;;;;;5074416;28;20024;-78
2022/11/06 06:40:53;;;;;;;3.40;1.65;;;;;;;;;;5056888;28;20493;-78
2022/11/06 06:43:18;;;;;;;2.60;1.50;;;;;;;;;;5058046;28;20034;-78
2022/11/06 06:45:43;;;;;;;2.75;1.40;;;;;;;;;;5074398;28;20033;-78
2022/11/06 06:48:09;;;;;;;3.00;1.42;;;;;;;;;;5056957;28;20035;-78
2022/11/06 06:50:34;;;;;;;3.97;1.48;;;;;;;;;;5074444;28;20048;-78
2022/11/06 06:53:00;;;;;;;2.88;1.40;;;;;;;;;;5056527;28;20493;-78
2022/11/06 06:55:25;;;;;;;3.42;1.45;;;;;;;;;;5040617;28;20082;-78
2022/11/06 06:57:58;;;;;;;2.20;1.35;;;;;;;;;;5056210;28;20059;-78
2022/11/06 07:00:23;;;;;;;4.32;1.70;;;;;;;;;;5074842;28;20031;-78
2022/11/06 07:02:49;;;;;;;4.15;1.70;;;;;;;;;;5074424;28;20029;-78
2022/11/06 07:05:14;;;;;;;2.75;1.60;;;;;;;;;;5055963;28;20048;-78
2022/11/06 07:07:39;;;;;;;4.60;1.65;;;;;;;;;;5073943;28;20399;-78
2022/11/06 07:10:05;;;;;;;3.13;1.48;;;;;;;;;;5073353;28;20028;-78
2022/11/06 07:12:31;;;;;;;4.03;1.40;;;;;;;;;;5074863;28;20406;-78
2022/11/06 07:14:56;;;;;;;4.30;1.77;;;;;;;;;;5057227;28;20420;-78
2022/11/06 07:17:21;;;;;;;3.55;1.70;;;;;;;;;;5057206;28;20032;-78
2022/11/06 07:19:46;;;;;;;13.45;2.13;;;;;;;;;;5075159;28;20028;-77
2022/11/06 07:22:12;;;;;;;5.78;1.92;;;;;;;;;;5074541;28;20107;-78
2022/11/06 07:24:38;;;;;;;4.57;1.60;;;;;;;;;;5040351;28;20056;-78
2022/11/06 07:27:04;;;;;;;4.03;1.77;;;;;;;;;;5023817;28;20024;-78
2022/11/06 07:29:29;;;;;;;5.10;1.60;;;;;;;;;;5056102;28;20036;-78
2022/11/06 07:31:54;;;;;;;4.15;1.90;;;;;;;;;;5038654;28;20029;-79
2022/11/06 07:34:20;;;;;;;3.88;1.73;;;;;;;;;;5055984;28;20437;-80
2022/11/06 07:36:45;;;;;;;4.13;1.83;;;;;;;;;;5056839;28;20360;-78
2022/11/06 07:39:10;;;;;;;7.57;1.50;;;;;;;;;;5022698;28;20051;-80
2022/11/06 07:41:36;;;;;;;4.05;1.48;;;;;;;;;;5057939;28;20121;-79
2022/11/06 07:44:02;;;;;;;5.20;1.70;;;;;;;;;;5060206;28;20066;-80
2022/11/06 07:46:27;;;;;;;6.13;1.65;;;;;;;;;;5027753;28;20422;-81
2022/11/06 07:48:53;;;;;;;4.82;1.50;;;;;;;;;;5077978;28;20472;-80
2022/11/06 07:51:19;;;;;;;5.95;1.60;;;;;;;;;;5060010;28;20032;-80
2022/11/06 07:53:44;;;;;;;4.07;1.50;;;;;;;;;;5077918;28;20036;-79
2022/11/06 07:56:09;;;;;;;5.72;1.60;;;;;;;;;;5077745;28;20028;-79
2022/11/06 07:58:35;;;;;;;2.17;1.25;;;;;;;;;;5059082;28;20131;-79
2022/11/06 08:01:01;;;;;;;4.00;1.50;;;;;;;;;;5077644;28;20387;-80
2022/11/06 08:03:29;;;;;;;3.33;1.40;;;;;;;;;;5042294;28;20493;-80
2022/11/06 08:05:55;;;;;;;5.43;1.70;;;;;;;;;;5059979;28;20027;-79
2022/11/06 08:08:20;;;;;;;4.28;1.50;;;;;;;;;;5078250;28;20479;-79
2022/11/06 08:10:46;;;;;;;3.17;1.73;;;;;;;;;;5078116;28;20036;-79
2022/11/06 08:13:16;;;;;;;3.05;1.70;;;;;;;;;;5061118;28;20043;-80
2022/11/06 08:15:42;;;;;;;2.28;1.25;;;;;;;;;;5042262;28;20035;-79
2022/11/06 08:18:08;;;;;;;4.55;1.75;;;;;;;;;;5042002;28;20032;-80
2022/11/06 08:20:34;;;;;;;2.67;1.40;;;;;;;;;;5059743;28;20020;-80
2022/11/06 08:23:00;;;;;;;2.00;1.40;;;;;;;;;;5059099;28;20025;-81
2022/11/06 08:25:27;;;;;;;5.03;1.42;;;;;;;;;;5059084;28;20048;-79
2022/11/06 08:27:59;;;;;;;3.95;1.65;;;;;;;;;;5058950;28;20123;-79
2022/11/06 08:30:26;;;;;;;5.43;1.60;;;;;;;;;;5059803;28;20201;-78
2022/11/06 08:32:51;;;;;;;5.88;1.77;;;;;;;;;;5059664;28;20032;-79
2022/11/06 08:35:17;;;;;;;1.92;1.35;;;;;;;;;;5058910;28;20474;-79
2022/11/06 08:37:43;;;;;;;6.88;1.60;;;;;;;;;;5058379;28;20035;-78
2022/11/06 08:40:09;;;;;;;2.30;1.40;;;;;;;;;;5058427;28;20063;-78
2022/11/06 08:42:34;;;;;;;8.05;1.75;;;;;;;;;;5041793;28;20037;-79
2022/11/06 08:44:59;;;;;;;3.35;1.42;;;;;;;;;;5058744;28;20121;-77
2022/11/06 08:47:25;;;;;;;6.95;1.60;;;;;;;;;;5077060;28;20043;-79
2022/11/06 08:49:50;;;;;;;5.50;1.60;;;;;;;;;;5041541;28;20082;-79
2022/11/06 08:52:15;;;;;;;3.80;1.80;;;;;;;;;;5075534;28;20060;-79
2022/11/06 08:54:41;;;;;;;5.22;1.73;;;;;;;;;;5058025;28;20036;-79
2022/11/06 08:57:06;;;;;;;4.00;1.67;;;;;;;;;;5059662;28;20029;-79
2022/11/06 08:59:32;;;;;;;5.88;1.70;;;;;;;;;;5043049;28;20116;-79
2022/11/06 09:01:57;;;;;;;3.35;1.70;;;;;;;;;;5077701;28;20028;-79
2022/11/06 09:04:23;;;;;;;3.72;1.63;;;;;;;;;;5060910;28;20463;-80
2022/11/06 09:06:48;;;;;;;6.05;1.80;;;;;;;;;;5079316;28;20065;-79
2022/11/06 09:09:13;;;;;;;7.10;1.80;;;;;;;;;;5077838;28;20532;-78
2022/11/06 09:11:39;;;;;;;4.53;1.67;;;;;;;;;;5077629;28;20035;-78
2022/11/06 09:14:04;;;;;;;6.95;1.50;;;;;;;;;;5059844;28;20033;-78
2022/11/06 09:16:30;;;;;;;4.95;1.80;;;;;;;;;;5078185;28;20383;-78
2022/11/06 09:18:55;;;;;;;43.40;7.30;;;;;;;;;;5060278;28;20395;-79
2022/11/06 09:21:22;;;;;;;22.33;4.72;;;;;;;;;;5060463;28;20021;-78
2022/11/06 09:23:47;;;;;;;17.27;3.85;;;;;;;;;;5077749;28;20027;-78
2022/11/06 09:26:13;;;;;;;26.38;4.13;;;;;;;;;;5058944;28;20399;-78
2022/11/06 09:28:39;;;;;;;19.02;4.10;;;;;;;;;;5059833;28;20055;-79
2022/11/06 09:31:05;;;;;;;15.65;4.00;;;;;;;;;;5041680;28;20083;-79
2022/11/06 09:33:30;;;;;;;13.57;3.40;;;;;;;;;;5057885;28;20027;-79
2022/11/06 09:35:55;;;;;;;16.15;3.33;;;;;;;;;;5075023;28;20035;-78
2022/11/06 09:38:21;;;;;;;26.23;3.50;;;;;;;;;;5075072;28;20112;-79
2022/11/06 09:40:56;;;;;;;15.52;3.95;;;;;;;;;;5056830;28;20020;-78
2022/11/06 09:43:44;;;;;;;9.73;3.60;;;;;;;;;;5075363;28;20056;-79
2022/11/06 09:46:28;;;;;;;10.70;3.05;;;;;;;;;;5074840;28;20028;-78
2022/11/06 09:49:00;;;;;;;;;;;;;;;;;;5057181;28;20103;-77
2022/11/06 09:51:36;;;;;;;15.93;2.90;;;;;;;;;;5074624;28;20007;-76
2022/11/06 09:54:06;;;;;;;12.40;2.83;;;;;;;;;;5057138;28;20028;-78
2022/11/06 09:56:33;;;;;;;9.43;3.42;;;;;;;;;;5040105;28;20046;-78
2022/11/06 09:59:00;;;;;;;9.98;2.88;;;;;;;;;;5057110;28;20124;-79
2022/11/06 10:01:41;;;;;;;7.82;2.90;;;;;;;;;;5057189;28;20502;-78
2022/11/06 10:04:17;;;;;;;7.82;2.45;;;;;;;;;;5056377;28;20481;-78
2022/11/06 10:06:42;;;;;;;9.27;2.42;;;;;;;;;;5056609;28;20017;-78
2022/11/06 10:09:10;;;;;;;6.85;2.50;;;;;;;;;;5056645;28;20036;-78
2022/11/06 10:11:51;;;;;;;6.57;2.35;;;;;;;;;;5039739;28;20040;-78
2022/11/06 10:14:16;;;;;;;6.57;2.60;;;;;;;;;;5057012;28;20017;-78
2022/11/06 10:17:00;;;;;;;4.68;2.13;;;;;;;;;;5074325;28;20024;-78
2022/11/06 10:19:49;;;;;;;6.03;1.98;;;;;;;;;;5056210;28;20113;-78
2022/11/06 10:22:24;;;;;;;8.55;1.92;;;;;;;;;;5056015;28;20028;-78
2022/11/06 10:25:18;;;;;;;9.75;2.03;;;;;;;;;;5056521;28;20056;-78
2022/11/06 10:27:59;;;;;;;;;;;;;;;;;;5072969;28;20027;-78
2022/11/06 10:30:25;;;;;;;6.22;1.92;;;;;;;;;;5074347;28;20009;-78
2022/11/06 10:33:02;;;;;;;7.28;1.60;;;;;;;;;;5040260;28;20032;-78
2022/11/06 10:35:30;;;;;;;4.35;1.70;;;;;;;;;;5056928;28;20108;-81
2022/11/06 10:38:34;;;;;;;5.47;1.60;;;;;;;;;;5056238;28;20378;-79
2022/11/06 10:40:59;;;;;;;4.23;1.70;;;;;;;;;;5024359;28;20040;-79
2022/11/06 10:43:26;;;;;;;4.75;1.85;;;;;;;;;;5041341;28;20486;-79
2022/11/06 10:46:00;;;;;;;6.22;1.77;;;;;;;;;;5057888;28;20085;-78
2022/11/06 10:48:29;;;;;;;8.55;2.13;;;;;;;;;;5057748;28;20024;-80
2022/11/06 10:51:31;;;;;;;8.75;2.10;;;;;;;;;;5058168;28;20027;-79
2022/11/06 10:54:06;;;;;;;9.95;1.80;;;;;;;;;;5075503;28;20021;-78
2022/11/06 10:56:48;;;;;;;13.98;2.17;;;;;;;;;;5057316;28;20028;-78
2022/11/06 10:59:14;;;;;;;20.58;3.63;;;;;;;;;;5057415;28;20110;-79
2022/11/06 11:01:40;;;;;;;18.33;3.38;;;;;;;;;;5075318;28;20031;-78
2022/11/06 11:04:05;;;;;;;22.92;3.78;;;;;;;;;;5075944;28;20390;-78
2022/11/06 11:06:31;;;;;;;27.00;3.88;;;;;;;;;;5075050;28;20024;-78
2022/11/06 11:08:56;;;;;;;20.63;3.88;;;;;;;;;;5075497;28;20403;-78
2022/11/06 11:11:24;;;;;;;17.20;3.33;;;;;;;;;;5074891;28;20085;-77
2022/11/06 11:13:55;;;;;;;23.13;4.32;;;;;;;;;;5074613;28;20089;-78
2022/11/06 11:16:41;;;;;;;16.58;3.42;;;;;;;;;;5073154;28;20111;-78
2022/11/06 11:19:23;;;;;;;23.75;3.38;;;;;;;;;;5056436;28;20498;-76
2022/11/06 11:22:00;;;;;;;11.10;3.33;;;;;;;;;;5072610;28;20051;-77
2022/11/06 11:24:26;;;;;;;13.70;3.00;;;;;;;;;;5056347;28;20565;-77
2022/11/06 11:26:53;;;;;;;7.18;2.53;;;;;;;;;;5055785;28;20123;-77
2022/11/06 11:29:25;;;;;;;10.57;2.50;;;;;;;;;;5055942;28;20075;-77
2022/11/06 11:31:53;;;;;;;12.00;2.97;;;;;;;;;;5055742;28;20024;-77
2022/11/06 11:34:27;;;;;;;6.03;2.50;;;;;;;;;;5055896;28;20029;-77
2022/11/06 11:36:58;;;;;;;17.63;2.90;;;;;;;;;;5055743;28;20092;-79
2022/11/06 11:39:35;;;;;;;9.50;2.30;;;;;;;;;;5073386;28;20024;-79
2022/11/06 11:42:24;;;;;;;10.45;2.35;;;;;;;;;;5055520;28;20016;-78
2022/11/06 11:45:25;;;;;;;8.90;2.35;;;;;;;;;;5055198;28;20086;-78
2022/11/06 11:47:50;;;;;;;9.10;2.45;;;;;;;;;;4991737;28;20041;-79
2022/11/06 11:50:26;;;;;;;5.07;1.90;;;;;;;;;;4975740;28;20046;-78
2022/11/06 11:53:06;;;;;;;9.93;1.92;;;;;;;;;;4967500;28;20081;-78
2022/11/06 11:55:36;;;;;;;8.07;1.95;;;;;;;;;;4975090;28;20069;-78
2022/11/06 11:58:02;;;;;;;7.65;2.42;;;;;;;;;;4994627;28;20081;-78
2022/11/06 12:00:28;;;;;;;12.98;2.22;;;;;;;;;;4994544;28;20116;-78
2022/11/06 12:02:57;;;;;;;3.95;1.70;;;;;;;;;;4978674;28;20611;-78
2022/11/06 12:05:30;;;;;;;7.65;1.67;;;;;;;;;;4978196;28;20026;-78
2022/11/06 12:07:56;;;;;;;9.48;1.83;;;;;;;;;;4977776;28;20030;-78
2022/11/06 12:10:37;;;;;;;4.38;1.80;;;;;;;;;;4979099;28;20037;-79
2022/11/06 12:13:15;;;;;;;7.82;1.92;;;;;;;;;;4979956;28;20088;-78
2022/11/06 12:15:48;;;;;;;7.00;1.70;;;;;;;;;;4996614;28;20034;-78
2022/11/06 12:18:16;;;;;;;3.10;1.45;;;;;;;;;;4997642;28;20057;-78
2022/11/06 12:20:55;;;;;;;5.65;1.73;;;;;;;;;;5015663;28;20058;-78
2022/11/06 12:23:26;;;;;;;5.45;1.60;;;;;;;;;;5037960;28;20075;-77
2022/11/06 12:25:58;;;;;;;4.80;1.50;;;;;;;;;;5038602;28;20033;-78
2022/11/06 12:28:24;;;;;;;8.25;1.75;;;;;;;;;;5040980;28;20025;-78
2022/11/06 12:31:06;;;;;;;5.15;1.65;;;;;;;;;;5041000;28;20025;-78
2022/11/06 12:33:32;;;;;;;7.78;1.60;;;;;;;;;;5040622;28;20032;-78
2022/11/06 12:36:04;;;;;;;5.88;1.58;;;;;;;;;;5041557;28;20438;-79
2022/11/06 12:38:41;;;;;;;4.43;1.23;;;;;;;;;;5057498;28;20032;-79
2022/11/06 12:41:23;;;;;;;11.48;1.92;;;;;;;;;;5056304;28;20111;-78
2022/11/06 12:43:49;;;;;;;6.10;1.73;;;;;;;;;;5022288;28;20032;-79
2022/11/06 12:46:33;;;;;;;4.93;1.63;;;;;;;;;;5038502;28;20037;-78
2022/11/06 12:49:32;;;;;;;6.43;2.05;;;;;;;;;;5056786;28;20036;-78
2022/11/06 12:52:24;;;;;;;6.88;1.77;;;;;;;;;;5056083;28;20029;-78
2022/11/06 12:54:58;;;;;;;5.60;1.98;;;;;;;;;;5021917;28;20025;-78
2022/11/06 12:57:42;;;;;;;3.95;1.80;;;;;;;;;;5055964;28;20052;-78
2022/11/06 13:00:19;;;;;;;5.65;1.88;;;;;;;;;;5021674;28;20132;-78
2022/11/06 13:03:21;;;;;;;5.43;1.63;;;;;;;;;;5038166;28;20028;-78
2022/11/06 13:06:09;;;;;;;4.47;1.63;;;;;;;;;;5025322;28;20124;-78
2022/11/06 13:09:00;;;;;;;5.55;1.70;;;;;;;;;;5021715;28;20029;-78
2022/11/06 13:11:50;;;;;;;9.05;1.67;;;;;;;;;;5053236;28;20013;-79
2022/11/06 13:14:16;;;;;;;8.63;1.77;;;;;;;;;;5047473;28;20056;-79
2022/11/06 13:16:44;;;;;;;8.80;1.80;;;;;;;;;;5057555;28;20032;-79
2022/11/06 13:19:18;;;;;;;5.90;2.10;;;;;;;;;;5058439;28;20033;-78
2022/11/06 13:21:50;;;;;;;4.43;2.00;;;;;;;;;;5059084;28;20044;-78
2022/11/06 13:24:32;;;;;;;15.32;2.95;;;;;;;;;;5059691;28;20025;-79
2022/11/06 13:27:24;;;;;;;20.42;3.30;;;;;;;;;;5041090;28;20495;-80
2022/11/06 13:29:50;;;;;;;17.92;2.65;;;;;;;;;;5048354;28;20029;-80
2022/11/06 13:32:22;;;;;;;10.45;2.65;;;;;;;;;;5007688;28;20495;-77
2022/11/06 13:34:49;;;;;;;12.10;2.45;;;;;;;;;;5043502;28;20036;-78
2022/11/06 13:37:34;;;;;;;7.43;2.45;;;;;;;;;;5058815;28;20108;-78
2022/11/06 13:40:09;;;;;;;10.43;2.42;;;;;;;;;;5022874;28;20036;-78
2022/11/06 13:42:41;;;;;;;13.20;2.33;;;;;;;;;;5057882;28;20025;-79
2022/11/06 13:45:08;;;;;;;6.97;2.35;;;;;;;;;;5039416;28;20476;-79
2022/11/06 13:48:14;;;;;;;13.00;2.65;;;;;;;;;;5039823;28;20025;-79
2022/11/06 13:50:48;;;;;;;7.32;2.60;;;;;;;;;;5038578;28;20025;-78
2022/11/06 13:53:21;;;;;;;9.50;2.10;;;;;;;;;;5038636;28;20036;-79
2022/11/06 13:56:09;;;;;;;8.65;1.75;;;;;;;;;;5056564;28;20049;-78
2022/11/06 13:58:37;;;;;;;8.48;2.25;;;;;;;;;;5064483;28;20040;-79
2022/11/06 14:01:24;;;;;;;4.55;1.88;;;;;;;;;;5057034;28;20051;-79
2022/11/06 14:03:55;;;;;;;7.82;1.98;;;;;;;;;;5040256;28;20036;-78
2022/11/06 14:06:23;;;;;;;8.88;1.83;;;;;;;;;;5056476;28;20021;-79
2022/11/06 14:08:51;;;;;;;2.97;1.60;;;;;;;;;;5056912;28;20020;-79
2022/11/06 14:11:26;;;;;;;7.13;1.45;;;;;;;;;;5057260;28;20463;-79
2022/11/06 14:14:00;;;;;;;7.22;1.90;;;;;;;;;;5040295;28;20491;-79
2022/11/06 14:16:29;;;;;;;3.97;1.60;;;;;;;;;;5074177;28;20059;-79
2022/11/06 14:19:14;;;;;;;4.97;1.70;;;;;;;;;;5040470;28;20514;-78
2022/11/06 14:21:43;;;;;;;4.22;1.60;;;;;;;;;;5056369;28;20095;-78
2022/11/06 14:24:28;;;;;;;6.38;1.50;;;;;;;;;;5058800;28;20028;-79
2022/11/06 14:26:54;;;;;;;6.88;1.80;;;;;;;;;;5074896;28;20028;-79
2022/11/06 14:29:26;;;;;;;6.80;1.40;;;;;;;;;;5074734;28;20032;-78
2022/11/06 14:32:00;;;;;;;3.78;1.38;;;;;;;;;;5074374;28;20031;-78
2022/11/06 14:34:31;;;;;;;4.35;1.60;;;;;;;;;;5074305;28;20032;-77
2022/11/06 14:36:56;;;;;;;5.50;1.73;;;;;;;;;;5040401;28;20055;-77
2022/11/06 14:39:50;;;;;;;5.03;1.42;;;;;;;;;;5056132;28;20432;-77
2022/11/06 14:42:36;;;;;;;5.43;1.85;;;;;;;;;;5056668;28;20024;-77
2022/11/06 14:45:01;;;;;;;3.67;1.40;;;;;;;;;;5063362;28;20044;-78
2022/11/06 14:47:29;;;;;;;3.00;1.63;;;;;;;;;;5074619;28;20112;-77
2022/11/06 14:49:57;;;;;;;3.65;1.50;;;;;;;;;;5073525;28;20024;-77
2022/11/06 14:52:24;;;;;;;3.22;1.30;;;;;;;;;;5073958;28;20028;-77
2022/11/06 14:55:01;;;;;;;4.32;1.63;;;;;;;;;;5073925;28;20064;-78
2022/11/06 14:57:53;;;;;;;5.95;1.52;;;;;;;;;;5039688;28;20479;-77
2022/11/06 15:00:44;;;;;;;3.50;1.50;;;;;;;;;;5068576;28;20056;-78
2022/11/06 15:03:36;;;;;;;4.10;1.50;;;;;;;;;;5039504;28;20052;-78
2022/11/06 15:06:26;;;;;;;4.47;1.60;;;;;;;;;;5073706;28;20091;-78
2022/11/06 15:08:55;;;;;;;5.90;1.60;;;;;;;;;;5065917;28;20099;-78
2022/11/06 15:11:33;;;;;;;3.13;1.50;;;;;;;;;;5038737;28;20029;-78
2022/11/06 15:13:59;;;;;;;3.50;1.85;;;;;;;;;;5055612;28;20039;-78
2022/11/06 15:16:37;;;;;;;2.88;1.40;;;;;;;;;;5073779;28;20028;-78